Time;durP1;ratioP1;P1;durP2;ratioP2;P2;SDS_P1;SDS_P2;PMS_P1;PMS_P2;Temp;Humidity;BMP_temperature;BMP_pressure;BME280_temperature;BME280_humidity;BME280_pressure;Samples;Min_cycle;Max_cycle;Signal;HPM_P1;HPM_P2
2021/07/29 00:00:42;;;;;;;13.88;9.95;;;24.60;99.90;;;;;;5074117;28;20057;-74
2021/07/29 00:03:08;;;;;;;19.38;11.43;;;24.60;99.90;;;;;;5075805;28;20493;-74
2021/07/29 00:05:35;;;;;;;13.55;10.52;;;24.60;99.90;;;;;;5074065;28;20104;-74
2021/07/29 00:08:01;;;;;;;22.13;11.27;;;24.60;99.90;;;;;;5073629;28;20028;-74
2021/07/29 00:10:28;;;;;;;13.90;10.63;;;24.60;99.90;;;;;;5073682;28;20031;-74
2021/07/29 00:12:54;;;;;;;13.48;10.95;;;24.60;99.90;;;;;;5073848;28;20035;-74
2021/07/29 00:15:20;;;;;;;14.57;11.15;;;24.50;99.90;;;;;;5092325;28;20020;-74
2021/07/29 00:20:23;;;;;;;12.75;10.55;;;24.40;99.90;;;;;;5091629;28;20035;-76
2021/07/29 00:22:54;;;;;;;15.30;11.13;;;24.40;99.90;;;;;;5092078;28;20127;-75
2021/07/29 00:25:21;;;;;;;11.68;9.93;;;24.30;99.90;;;;;;5092120;28;20023;-75
2021/07/29 00:27:47;;;;;;;19.45;11.48;;;24.40;99.90;;;;;;5092009;28;20145;-75
2021/07/29 00:30:15;;;;;;;14.27;11.95;;;24.30;99.90;;;;;;5092318;28;20035;-75
2021/07/29 00:32:41;;;;;;;14.45;10.05;;;24.30;99.90;;;;;;5088625;28;20108;-75
2021/07/29 00:35:14;;;;;;;13.75;10.32;;;24.30;99.90;;;;;;5073310;28;20486;-75
2021/07/29 00:37:40;;;;;;;17.67;11.30;;;24.30;99.90;;;;;;5091614;28;20056;-75
2021/07/29 00:40:06;;;;;;;13.15;10.73;;;24.30;99.90;;;;;;5073016;28;20449;-75
2021/07/29 00:42:32;;;;;;;19.95;11.48;;;24.30;99.90;;;;;;5090869;28;20024;-74
2021/07/29 00:44:58;;;;;;;13.70;10.50;;;24.20;99.90;;;;;;5073241;28;20016;-74
2021/07/29 00:47:24;;;;;;;12.20;10.23;;;24.30;99.90;;;;;;5091455;28;20024;-74
2021/07/29 00:49:50;;;;;;;21.48;11.48;;;24.30;99.90;;;;;;5091206;28;20399;-74
2021/07/29 00:52:20;;;;;;;13.00;10.60;;;24.30;99.90;;;;;;5091333;28;20032;-73
2021/07/29 00:54:46;;;;;;;15.25;9.98;;;24.30;99.90;;;;;;5073652;28;20401;-75
2021/07/29 00:57:12;;;;;;;14.82;10.57;;;24.40;99.90;;;;;;5091513;28;20105;-75
2021/07/29 00:59:39;;;;;;;12.02;9.98;;;24.50;99.90;;;;;;5091164;28;20091;-75
2021/07/29 01:02:06;;;;;;;15.85;10.23;;;24.50;99.90;;;;;;5091136;28;20493;-75
2021/07/29 01:04:32;;;;;;;21.90;10.60;;;24.40;99.90;;;;;;5073009;28;20051;-74
2021/07/29 01:06:58;;;;;;;14.13;10.05;;;24.40;99.90;;;;;;5091176;28;20069;-74
2021/07/29 01:09:24;;;;;;;19.08;9.98;;;24.40;99.90;;;;;;5072779;28;20016;-73
2021/07/29 01:11:50;;;;;;;14.52;10.60;;;24.40;99.90;;;;;;5072753;28;20028;-74
2021/07/29 01:14:16;;;;;;;20.25;10.50;;;24.40;99.90;;;;;;5073120;28;20117;-73
2021/07/29 01:16:42;;;;;;;11.82;10.68;;;24.30;99.90;;;;;;5091046;28;20091;-73
2021/07/29 01:19:10;;;;;;;16.08;10.82;;;24.30;99.90;;;;;;5090810;28;20039;-73
2021/07/29 01:21:36;;;;;;;15.98;10.55;;;24.20;99.90;;;;;;5090735;28;20059;-74
2021/07/29 01:24:03;;;;;;;14.93;10.00;;;24.10;99.90;;;;;;5090916;28;20021;-74
2021/07/29 01:26:29;;;;;;;26.15;11.50;;;24.20;99.90;;;;;;5090888;28;20024;-72
2021/07/29 01:28:56;;;;;;;14.48;11.43;;;24.10;99.90;;;;;;5090622;28;20497;-74
2021/07/29 01:31:23;;;;;;;13.70;10.95;;;24.10;99.90;;;;;;5072679;28;20478;-74
2021/07/29 01:33:49;;;;;;;17.80;11.45;;;23.90;99.90;;;;;;5072651;28;20470;-74
2021/07/29 01:36:14;;;;;;;11.90;10.65;;;23.90;99.90;;;;;;5072852;28;20024;-74
2021/07/29 01:38:40;;;;;;;13.30;10.63;;;23.80;99.90;;;;;;5072576;28;20068;-74
2021/07/29 01:41:06;;;;;;;14.43;10.20;;;23.80;99.90;;;;;;5072684;28;20031;-74
2021/07/29 01:43:32;;;;;;;13.93;10.48;;;24.00;99.90;;;;;;5091120;28;20016;-75
2021/07/29 01:45:59;;;;;;;15.02;10.27;;;24.10;99.90;;;;;;5092229;28;20050;-74
2021/07/29 01:48:25;;;;;;;17.23;10.48;;;24.10;99.90;;;;;;5092119;28;20017;-74
2021/07/29 01:50:51;;;;;;;18.85;12.55;;;24.10;99.90;;;;;;5090465;28;20034;-74
2021/07/29 01:53:17;;;;;;;18.23;10.93;;;24.10;99.90;;;;;;5091941;28;20024;-74
2021/07/29 01:55:47;;;;;;;11.85;10.30;;;23.90;99.90;;;;;;5094590;28;20451;-74
2021/07/29 01:58:14;;;;;;;15.70;10.90;;;23.90;99.90;;;;;;5094715;28;20031;-74
2021/07/29 02:00:43;;;;;;;12.48;10.90;;;23.80;99.90;;;;;;5094888;28;20389;-74
2021/07/29 02:03:08;;;;;;;15.60;10.23;;;23.70;99.90;;;;;;5076513;28;20024;-72
2021/07/29 02:05:34;;;;;;;14.40;10.85;;;23.70;99.90;;;;;;5094487;28;20439;-74
2021/07/29 02:08:01;;;;;;;17.80;11.50;;;23.80;99.90;;;;;;5076308;28;20028;-75
2021/07/29 02:10:27;;;;;;;17.52;12.20;;;23.70;99.90;;;;;;5095000;28;20092;-74
2021/07/29 02:12:54;;;;;;;15.38;10.80;;;23.60;99.90;;;;;;5076020;28;20036;-72
2021/07/29 02:15:21;;;;;;;16.33;11.90;;;23.60;99.90;;;;;;5076008;28;20077;-74
2021/07/29 02:17:47;;;;;;;17.70;11.18;;;23.50;99.90;;;;;;5094141;28;20032;-74
2021/07/29 02:20:13;;;;;;;12.73;10.82;;;23.40;99.90;;;;;;5075965;28;20046;-74
2021/07/29 02:22:39;;;;;;;17.95;10.55;;;23.40;99.90;;;;;;5093915;28;20028;-73
2021/07/29 02:25:05;;;;;;;15.07;10.85;;;23.30;99.90;;;;;;5075802;28;20024;-73
2021/07/29 02:27:32;;;;;;;16.60;13.43;;;23.30;99.90;;;;;;5075677;28;20028;-73
2021/07/29 02:29:58;;;;;;;19.90;11.82;;;23.30;99.90;;;;;;5094081;28;20040;-73
2021/07/29 02:32:24;;;;;;;13.73;10.93;;;23.30;99.90;;;;;;5073568;28;20100;-74
2021/07/29 02:34:52;;;;;;;16.42;11.23;;;23.30;99.90;;;;;;5093712;28;20020;-72
2021/07/29 02:37:18;;;;;;;18.58;11.20;;;23.20;99.90;;;;;;5075596;28;20047;-74
2021/07/29 02:39:44;;;;;;;16.00;11.00;;;23.30;99.90;;;;;;5075417;28;20024;-74
2021/07/29 02:42:10;;;;;;;18.83;12.32;;;23.30;99.90;;;;;;5075326;28;20031;-74
2021/07/29 02:44:36;;;;;;;20.23;10.90;;;23.30;99.90;;;;;;5093718;28;20055;-74
2021/07/29 02:47:02;;;;;;;15.35;12.43;;;23.30;99.90;;;;;;5075470;28;20276;-74
2021/07/29 02:49:28;;;;;;;14.82;10.68;;;23.30;99.90;;;;;;5093190;28;20020;-74
2021/07/29 02:51:54;;;;;;;12.10;10.80;;;23.30;99.90;;;;;;5075216;28;20378;-74
2021/07/29 02:54:19;;;;;;;14.77;12.35;;;23.40;99.90;;;;;;5093660;28;20432;-74
2021/07/29 02:56:45;;;;;;;13.38;11.15;;;23.30;99.90;;;;;;5093727;28;20024;-74
2021/07/29 02:59:11;;;;;;;13.30;11.38;;;23.30;99.90;;;;;;5075051;28;20520;-74
2021/07/29 03:01:36;;;;;;;15.38;11.25;;;23.20;99.90;;;;;;5075114;28;20036;-74
2021/07/29 03:04:02;;;;;;;14.18;11.30;;;23.20;99.90;;;;;;5093765;28;20397;-74
2021/07/29 03:06:28;;;;;;;13.13;11.50;;;23.20;99.90;;;;;;5092578;28;20032;-74
2021/07/29 03:08:54;;;;;;;23.33;11.23;;;23.20;99.90;;;;;;5093060;28;20027;-74
2021/07/29 03:11:20;;;;;;;14.23;11.90;;;23.20;99.90;;;;;;5074902;28;20510;-74
2021/07/29 03:13:46;;;;;;;18.50;11.70;;;23.10;99.90;;;;;;5074959;28;20030;-74
2021/07/29 03:16:11;;;;;;;16.73;11.25;;;23.00;99.90;;;;;;5093113;28;20350;-74
2021/07/29 03:18:37;;;;;;;13.85;11.80;;;23.20;99.90;;;;;;5092583;28;20031;-74
2021/07/29 03:21:06;;;;;;;15.52;12.18;;;23.10;99.90;;;;;;5092819;28;20024;-74
2021/07/29 03:23:32;;;;;;;18.20;12.80;;;23.20;99.90;;;;;;5093818;28;20028;-74
2021/07/29 03:25:58;;;;;;;15.52;11.85;;;23.20;99.90;;;;;;5094260;28;20027;-75
2021/07/29 03:28:24;;;;;;;16.48;12.43;;;23.20;99.90;;;;;;5074788;28;20394;-74
2021/07/29 03:30:52;;;;;;;17.60;12.65;;;23.10;99.90;;;;;;5074790;28;20024;-74
2021/07/29 03:33:19;;;;;;;23.42;12.68;;;23.10;99.90;;;;;;5093015;28;20116;-75
2021/07/29 03:35:45;;;;;;;21.15;12.30;;;23.00;99.90;;;;;;5092999;28;20431;-75
2021/07/29 03:38:11;;;;;;;19.48;13.88;;;23.00;99.90;;;;;;5074355;28;20063;-75
2021/07/29 03:40:38;;;;;;;15.05;11.98;;;23.00;99.90;;;;;;5092900;28;20039;-75
2021/07/29 03:43:05;;;;;;;20.77;11.70;;;23.10;99.90;;;;;;5074436;28;20028;-74
2021/07/29 03:45:32;;;;;;;13.85;11.20;;;23.10;99.90;;;;;;5074536;28;20020;-74
2021/07/29 03:47:59;;;;;;;14.18;11.48;;;23.20;99.90;;;;;;5074020;28;20024;-75
2021/07/29 03:50:25;;;;;;;15.80;10.82;;;23.20;99.90;;;;;;5092710;28;20044;-75
2021/07/29 03:52:50;;;;;;;20.00;12.80;;;23.10;99.90;;;;;;5074174;28;20020;-74
2021/07/29 03:55:16;;;;;;;19.00;10.63;;;23.10;99.90;;;;;;5092436;28;20069;-73
2021/07/29 03:57:42;;;;;;;18.42;12.45;;;23.20;99.90;;;;;;5074011;28;20016;-74
2021/07/29 04:00:09;;;;;;;14.57;10.85;;;23.20;99.90;;;;;;5092163;28;20034;-74
2021/07/29 04:02:35;;;;;;;20.30;11.20;;;23.40;99.90;;;;;;5092500;28;20123;-73
2021/07/29 04:05:01;;;;;;;17.60;10.02;;;23.60;99.90;;;;;;5074152;28;20119;-75
2021/07/29 04:07:27;;;;;;;14.07;10.85;;;23.60;99.90;;;;;;5092310;28;20028;-72
2021/07/29 04:09:53;;;;;;;11.35;10.23;;;23.70;99.90;;;;;;5092002;28;20096;-74
2021/07/29 04:12:19;;;;;;;14.18;10.40;;;23.80;99.90;;;;;;5092101;28;20063;-74
2021/07/29 04:14:45;;;;;;;13.90;11.25;;;23.90;99.90;;;;;;5091984;28;20020;-74
2021/07/29 04:17:10;;;;;;;14.82;10.80;;;24.00;99.90;;;;;;5092218;28;20366;-75
2021/07/29 04:19:36;;;;;;;12.88;10.20;;;24.00;99.90;;;;;;5092609;28;20036;-76
2021/07/29 04:22:05;;;;;;;14.00;9.55;;;24.10;99.90;;;;;;5091860;28;20031;-75
2021/07/29 04:24:31;;;;;;;20.38;11.27;;;24.10;99.90;;;;;;5073772;28;20085;-75
2021/07/29 04:26:58;;;;;;;14.63;10.38;;;24.00;99.90;;;;;;5073480;28;20428;-74
2021/07/29 04:29:25;;;;;;;14.65;11.63;;;23.90;99.90;;;;;;5091400;28;20024;-73
2021/07/29 04:31:52;;;;;;;15.73;9.93;;;23.80;99.90;;;;;;5091877;28;20024;-74
2021/07/29 04:34:18;;;;;;;19.65;10.93;;;23.80;99.90;;;;;;5086279;28;20020;-74
2021/07/29 04:36:44;;;;;;;14.07;9.85;;;23.90;99.90;;;;;;5091846;28;20032;-74
2021/07/29 04:39:10;;;;;;;12.77;10.15;;;24.00;99.90;;;;;;5091582;28;20174;-75
2021/07/29 04:41:43;;;;;;;12.45;10.23;;;24.00;99.90;;;;;;5091305;28;20145;-75
2021/07/29 04:44:10;;;;;;;15.88;9.88;;;24.20;99.90;;;;;;5073285;28;20020;-76
2021/07/29 04:46:37;;;;;;;19.92;10.70;;;24.30;99.90;;;;;;5091410;28;20466;-73
2021/07/29 04:49:03;;;;;;;13.50;9.43;;;24.30;99.90;;;;;;5073164;28;20031;-74
2021/07/29 04:51:30;;;;;;;19.33;9.10;;;24.30;99.90;;;;;;5073056;28;20024;-73
2021/07/29 04:53:55;;;;;;;12.77;8.77;;;24.30;99.90;;;;;;5073129;28;20119;-73
2021/07/29 04:56:21;;;;;;;13.88;9.75;;;24.40;99.90;;;;;;5091548;28;20127;-76
2021/07/29 04:58:49;;;;;;;12.45;9.77;;;24.40;99.90;;;;;;5072951;28;20035;-74
2021/07/29 05:01:16;;;;;;;14.63;11.88;;;24.40;99.90;;;;;;5091173;28;20024;-75
2021/07/29 05:03:42;;;;;;;19.00;10.05;;;24.40;99.90;;;;;;5091275;28;20094;-75
2021/07/29 05:06:07;;;;;;;14.73;10.63;;;24.40;99.90;;;;;;5092051;28;20030;-75
2021/07/29 05:08:35;;;;;;;14.05;10.63;;;24.40;99.90;;;;;;5090957;28;20389;-74
2021/07/29 05:11:05;;;;;;;23.70;11.68;;;24.40;99.90;;;;;;5094045;28;20095;-74
2021/07/29 05:13:31;;;;;;;16.92;10.57;;;24.50;99.90;;;;;;5074268;28;20027;-72
2021/07/29 05:15:57;;;;;;;15.98;10.00;;;24.60;99.90;;;;;;5073046;28;20024;-75
2021/07/29 05:18:23;;;;;;;17.65;10.40;;;24.60;99.90;;;;;;5072925;28;20032;-73
2021/07/29 05:20:49;;;;;;;17.35;9.57;;;24.70;99.90;;;;;;5073154;28;20100;-72
2021/07/29 05:23:15;;;;;;;11.70;10.13;;;24.80;99.90;;;;;;5072911;28;20032;-75
2021/07/29 05:25:41;;;;;;;18.13;12.13;;;24.90;99.90;;;;;;5072866;28;20581;-73
2021/07/29 05:28:07;;;;;;;23.60;10.73;;;25.00;99.90;;;;;;5090020;28;20085;-74
2021/07/29 05:30:35;;;;;;;20.40;11.35;;;25.10;99.90;;;;;;5091747;28;20075;-76
2021/07/29 05:33:01;;;;;;;13.75;10.40;;;25.10;99.90;;;;;;5072805;28;20055;-74
2021/07/29 05:35:27;;;;;;;17.77;10.05;;;25.10;99.90;;;;;;5090926;28;20032;-74
2021/07/29 05:37:53;;;;;;;32.15;11.05;;;25.30;99.90;;;;;;5072374;28;20028;-74
2021/07/29 05:40:19;;;;;;;21.40;10.50;;;25.30;99.90;;;;;;5072602;28;20233;-74
2021/07/29 05:42:45;;;;;;;25.38;10.93;;;25.40;99.90;;;;;;5072471;28;20027;-74
2021/07/29 05:45:11;;;;;;;16.23;10.13;;;25.60;99.90;;;;;;5072891;28;20658;-74
2021/07/29 05:47:37;;;;;;;15.75;11.18;;;25.60;99.90;;;;;;5072507;28;20034;-73
2021/07/29 05:50:04;;;;;;;17.40;12.02;;;25.70;99.90;;;;;;5090799;28;20028;-73
2021/07/29 05:52:29;;;;;;;16.50;10.98;;;25.80;99.90;;;;;;5090783;28;20024;-73
2021/07/29 05:54:55;;;;;;;20.05;10.80;;;25.80;99.90;;;;;;5090816;28;20030;-73
2021/07/29 05:57:21;;;;;;;17.13;9.13;;;25.90;99.90;;;;;;5072299;28;20035;-73
2021/07/29 05:59:47;;;;;;;20.17;10.32;;;26.00;99.90;;;;;;5072351;28;20032;-74
2021/07/29 06:02:12;;;;;;;23.60;9.85;;;26.10;99.90;;;;;;5090746;28;20129;-73
2021/07/29 06:04:38;;;;;;;18.92;11.55;;;26.20;99.90;;;;;;5090859;28;20026;-74
2021/07/29 06:07:04;;;;;;;19.02;10.77;;;26.30;99.90;;;;;;5072156;28;20016;-73
2021/07/29 06:09:30;;;;;;;28.77;11.32;;;26.40;99.90;;;;;;5090466;28;20367;-74
2021/07/29 06:11:56;;;;;;;13.35;10.82;;;26.40;99.90;;;;;;5091028;28;20050;-74
2021/07/29 06:14:22;;;;;;;18.92;9.35;;;26.50;99.90;;;;;;5073313;28;20036;-73
2021/07/29 06:16:48;;;;;;;14.00;10.63;;;26.60;99.90;;;;;;5091069;28;20065;-74
2021/07/29 06:19:18;;;;;;;17.23;9.65;;;26.70;99.90;;;;;;5090082;28;20071;-75
2021/07/29 06:21:45;;;;;;;14.27;10.93;;;26.80;99.90;;;;;;5072232;28;20165;-73
2021/07/29 06:24:11;;;;;;;22.45;11.98;;;26.90;99.90;;;;;;5072161;28;20024;-73
2021/07/29 06:26:38;;;;;;;19.25;11.70;;;26.90;99.90;;;;;;5090227;28;20024;-73
2021/07/29 06:29:05;;;;;;;18.55;12.15;;;26.90;99.90;;;;;;5090665;28;20559;-74
2021/07/29 06:31:32;;;;;;;23.75;11.13;;;26.90;99.90;;;;;;5072970;28;20483;-74
2021/07/29 06:34:01;;;;;;;20.23;11.05;;;26.90;99.90;;;;;;5072107;28;20577;-76
2021/07/29 06:36:28;;;;;;;22.00;11.65;;;27.00;99.90;;;;;;5097405;28;20478;-73
2021/07/29 06:38:53;;;;;;;23.90;10.77;;;26.90;99.90;;;;;;5072375;28;20020;-73
2021/07/29 06:41:19;;;;;;;23.33;11.20;;;26.90;99.90;;;;;;5093350;28;20032;-74
2021/07/29 06:43:45;;;;;;;20.45;10.70;;;26.90;99.90;;;;;;5094267;28;20127;-73
2021/07/29 06:46:11;;;;;;;21.42;11.43;;;26.90;99.90;;;;;;5094271;28;20024;-75
2021/07/29 06:48:37;;;;;;;20.85;10.70;;;27.00;99.90;;;;;;5075850;28;20020;-72
2021/07/29 06:51:04;;;;;;;24.75;11.15;;;27.10;99.90;;;;;;5094438;28;20478;-73
2021/07/29 06:53:30;;;;;;;27.25;12.25;;;27.20;99.90;;;;;;5093983;28;20020;-73
2021/07/29 06:55:59;;;;;;;27.08;13.45;;;27.10;99.90;;;;;;5093694;28;20103;-73
2021/07/29 06:58:25;;;;;;;19.27;12.30;;;27.10;99.90;;;;;;5093766;28;20027;-73
2021/07/29 07:00:52;;;;;;;18.77;11.77;;;27.00;99.90;;;;;;5075124;28;20029;-72
2021/07/29 07:03:18;;;;;;;13.95;10.30;;;27.10;99.90;;;;;;5075612;28;20024;-72
2021/07/29 07:05:46;;;;;;;17.70;11.55;;;27.10;99.90;;;;;;5075349;28;20400;-73
2021/07/29 07:08:15;;;;;;;17.98;11.63;;;27.10;99.90;;;;;;5093600;28;20048;-74
2021/07/29 07:10:41;;;;;;;31.85;12.73;;;27.20;99.90;;;;;;5075367;28;20031;-75
2021/07/29 07:13:08;;;;;;;24.67;11.85;;;27.20;99.90;;;;;;5075651;28;20028;-72
2021/07/29 07:15:33;;;;;;;21.45;12.00;;;27.20;99.90;;;;;;5075328;28;20059;-72
2021/07/29 07:17:59;;;;;;;18.60;12.50;;;27.20;99.90;;;;;;5093373;28;20539;-73
2021/07/29 07:20:25;;;;;;;16.48;12.00;;;27.10;99.90;;;;;;5074894;28;20059;-74
2021/07/29 07:22:54;;;;;;;24.42;13.35;;;27.00;99.90;;;;;;5093187;28;20071;-73
2021/07/29 07:25:20;;;;;;;22.30;12.00;;;27.00;99.90;;;;;;5093080;28;20031;-73
2021/07/29 07:27:45;;;;;;;20.50;12.10;;;27.00;99.90;;;;;;5092998;28;20024;-74
2021/07/29 07:30:12;;;;;;;18.85;11.18;;;27.10;99.90;;;;;;5074935;28;20189;-75
2021/07/29 07:32:38;;;;;;;23.05;12.45;;;27.10;99.90;;;;;;5092865;28;20024;-74
2021/07/29 07:35:04;;;;;;;17.25;11.77;;;27.10;99.90;;;;;;5092972;28;20107;-73
2021/07/29 07:37:30;;;;;;;16.02;11.85;;;27.10;99.90;;;;;;5092551;28;20434;-74
2021/07/29 07:39:56;;;;;;;18.35;11.57;;;27.00;99.90;;;;;;5074832;28;20035;-74
2021/07/29 07:42:22;;;;;;;21.58;12.15;;;27.00;99.90;;;;;;5075038;28;20028;-73
2021/07/29 07:44:53;;;;;;;20.65;11.77;;;26.90;99.90;;;;;;5074729;28;20263;-73
2021/07/29 07:47:18;;;;;;;16.05;12.30;;;26.90;99.90;;;;;;5092752;28;20024;-74
2021/07/29 07:49:44;;;;;;;15.27;11.52;;;27.00;99.90;;;;;;5092520;28;20352;-73
2021/07/29 07:52:10;;;;;;;21.30;12.80;;;27.00;99.90;;;;;;5092091;28;20020;-73
2021/07/29 07:54:36;;;;;;;18.00;13.40;;;27.00;99.90;;;;;;5074376;28;20056;-72
2021/07/29 07:57:06;;;;;;;17.98;12.50;;;27.10;99.90;;;;;;5092639;28;20077;-73
2021/07/29 07:59:36;;;;;;;18.42;14.10;;;27.30;99.90;;;;;;5073915;28;20028;-73
2021/07/29 08:02:03;;;;;;;20.75;12.55;;;27.30;99.90;;;;;;5092334;28;20042;-73
2021/07/29 08:04:29;;;;;;;17.55;12.77;;;27.30;99.90;;;;;;5074984;28;20495;-72
2021/07/29 08:06:54;;;;;;;22.40;12.45;;;27.30;99.90;;;;;;5092530;28;20036;-73
2021/07/29 08:09:20;;;;;;;19.13;12.70;;;27.30;99.90;;;;;;5073733;28;20020;-73
2021/07/29 08:11:46;;;;;;;23.85;13.25;;;27.30;99.90;;;;;;5073973;28;20027;-73
2021/07/29 08:14:12;;;;;;;19.20;12.23;;;27.30;99.90;;;;;;5073955;28;20070;-73
2021/07/29 08:16:38;;;;;;;19.88;13.02;;;27.20;99.90;;;;;;5092167;28;20066;-72
2021/07/29 08:19:04;;;;;;;18.08;12.23;;;27.20;99.90;;;;;;5073541;28;20118;-72
2021/07/29 08:21:30;;;;;;;15.73;12.60;;;27.30;99.90;;;;;;5073771;28;20497;-72
2021/07/29 08:23:56;;;;;;;20.92;13.30;;;27.20;99.90;;;;;;5073955;28;20035;-72
2021/07/29 08:26:22;;;;;;;17.60;13.13;;;27.20;99.90;;;;;;5073695;28;20028;-72
2021/07/29 08:28:47;;;;;;;22.33;12.95;;;27.10;99.90;;;;;;5073758;28;20020;-73
2021/07/29 08:31:13;;;;;;;13.73;12.32;;;27.20;99.90;;;;;;5073791;28;20052;-73
2021/07/29 08:33:41;;;;;;;15.98;12.77;;;27.20;99.90;;;;;;5073784;28;20044;-72
2021/07/29 08:36:30;;;;;;;21.92;13.73;;;27.30;99.90;;;;;;5085836;28;20119;-73
2021/07/29 08:38:56;;;;;;;16.10;12.23;;;27.30;99.90;;;;;;5055605;28;20039;-73
2021/07/29 08:41:22;;;;;;;19.33;12.50;;;27.30;99.90;;;;;;5073220;28;20131;-74
2021/07/29 08:43:47;;;;;;;24.48;12.50;;;27.30;99.90;;;;;;5073369;28;20478;-74
2021/07/29 08:46:18;;;;;;;18.77;12.52;;;27.20;99.90;;;;;;5073186;28;20119;-73
2021/07/29 08:48:46;;;;;;;22.60;10.90;;;27.30;99.90;;;;;;5073186;28;20028;-73
2021/07/29 08:51:25;;;;;;;19.95;12.10;;;27.30;99.90;;;;;;5073141;28;20077;-73
2021/07/29 08:53:52;;;;;;;19.60;13.02;;;27.30;99.90;;;;;;5073209;28;20473;-72
2021/07/29 08:56:23;;;;;;;17.35;11.20;;;27.30;99.90;;;;;;5073005;28;20024;-73
2021/07/29 08:58:49;;;;;;;19.98;11.13;;;27.10;99.90;;;;;;5072779;28;20024;-73
2021/07/29 09:01:15;;;;;;;18.27;10.95;;;27.20;99.90;;;;;;5090999;28;20024;-73
2021/07/29 09:03:41;;;;;;;19.95;12.63;;;27.20;99.90;;;;;;5072986;28;20024;-73
2021/07/29 09:06:07;;;;;;;23.25;12.20;;;27.20;99.90;;;;;;5073405;28;20389;-72
2021/07/29 09:09:04;;;;;;;18.67;11.88;;;27.20;99.90;;;;;;5090982;28;20091;-73
2021/07/29 09:11:38;;;;;;;17.33;12.50;;;27.10;99.90;;;;;;5072908;28;20020;-73
2021/07/29 09:14:08;;;;;;;26.80;13.52;;;27.10;99.90;;;;;;5073342;28;20020;-73
2021/07/29 09:16:51;;;;;;;16.13;12.90;;;27.10;99.90;;;;;;5074153;28;20024;-73
2021/07/29 09:19:32;;;;;;;16.40;14.63;;;27.00;99.90;;;;;;5091249;28;20089;-73
2021/07/29 09:22:05;;;;;;;17.73;13.63;;;27.00;99.90;;;;;;5091267;28;20023;-73
2021/07/29 09:24:32;;;;;;;18.58;13.63;;;27.10;99.90;;;;;;5091218;28;20063;-73
2021/07/29 09:26:58;;;;;;;25.45;13.40;;;27.20;99.90;;;;;;5091008;28;20012;-74
2021/07/29 09:29:26;;;;;;;18.58;14.45;;;27.30;99.90;;;;;;5090799;28;20016;-73
2021/07/29 09:32:12;;;;;;;17.23;14.50;;;27.30;99.90;;;;;;5091521;28;20428;-74
2021/07/29 09:34:56;;;;;;;22.70;12.85;;;27.50;99.90;;;;;;5090443;28;20115;-75
2021/07/29 09:37:21;;;;;;;25.92;14.02;;;27.60;99.90;;;;;;5091044;28;20050;-74
2021/07/29 09:40:07;;;;;;;20.27;14.98;;;27.50;99.90;;;;;;5090829;28;20447;-73
2021/07/29 09:42:34;;;;;;;18.08;12.55;;;27.40;99.90;;;;;;5090510;28;20070;-72
2021/07/29 09:45:00;;;;;;;20.58;12.15;;;27.50;99.90;;;;;;5072526;28;20028;-72
2021/07/29 09:47:26;;;;;;;19.92;12.57;;;27.50;99.90;;;;;;5072589;28;20382;-73
2021/07/29 09:49:51;;;;;;;27.02;14.38;;;27.60;99.90;;;;;;5072426;28;20035;-73
2021/07/29 09:52:17;;;;;;;21.92;12.75;;;27.70;99.90;;;;;;5072377;28;20533;-74
2021/07/29 09:54:45;;;;;;;17.00;12.95;;;27.70;99.90;;;;;;5091520;28;20077;-74
2021/07/29 09:57:12;;;;;;;18.13;12.85;;;27.70;99.90;;;;;;5072743;28;20035;-73
2021/07/29 09:59:38;;;;;;;18.42;12.88;;;27.70;99.90;;;;;;5090547;28;20103;-74
2021/07/29 10:02:06;;;;;;;27.85;13.18;;;27.70;99.90;;;;;;5072462;28;20043;-73
2021/07/29 10:04:37;;;;;;;21.90;14.15;;;27.70;99.90;;;;;;5093255;28;20024;-73
2021/07/29 10:07:07;;;;;;;23.38;12.93;;;27.80;99.90;;;;;;5091183;28;20024;-74
2021/07/29 10:09:39;;;;;;;23.52;13.60;;;27.90;99.90;;;;;;5072481;28;20454;-73
2021/07/29 10:12:05;;;;;;;;;;;27.90;99.90;;;;;;5091562;28;20095;-74
2021/07/29 10:14:52;;;;;;;25.75;14.07;;;28.00;99.90;;;;;;5092813;28;20430;-73
2021/07/29 10:17:33;;;;;;;19.70;13.60;;;28.00;99.90;;;;;;5077021;28;20059;-72
2021/07/29 10:20:18;;;;;;;20.38;13.52;;;28.00;99.90;;;;;;5094340;28;20040;-74
2021/07/29 10:22:44;;;;;;;21.52;14.63;;;28.10;99.90;;;;;;5094315;28;20040;-73
2021/07/29 10:25:11;;;;;;;23.77;14.55;;;28.20;99.90;;;;;;5094592;28;20017;-74
2021/07/29 10:27:37;;;;;;;19.30;13.10;;;28.30;99.90;;;;;;5094016;28;20021;-73
2021/07/29 10:30:18;;;;;;;23.15;15.55;;;28.40;99.90;;;;;;5094203;28;20028;-74
2021/07/29 10:32:52;;;;;;;17.60;14.47;;;28.50;99.90;;;;;;5075854;28;20081;-73
2021/07/29 10:35:29;;;;;;;20.42;16.10;;;28.60;99.90;;;;;;5075957;28;20073;-74
2021/07/29 10:37:56;;;;;;;33.88;18.05;;;28.70;99.90;;;;;;5073317;28;20486;-74
2021/07/29 10:40:32;;;;;;;25.02;17.85;;;28.70;99.90;;;;;;5094391;28;20651;-74
2021/07/29 10:43:24;;;;;;;25.58;17.20;;;28.70;99.90;;;;;;5075843;28;20509;-73
2021/07/29 10:45:57;;;;;;;23.17;17.75;;;28.70;99.90;;;;;;5075631;28;20048;-73
2021/07/29 10:48:42;;;;;;;20.77;17.00;;;28.70;99.90;;;;;;5093972;28;20035;-73
2021/07/29 10:51:18;;;;;;;25.70;19.30;;;28.70;99.90;;;;;;5076121;28;20020;-73
2021/07/29 10:53:49;;;;;;;19.50;17.52;;;28.60;99.90;;;;;;5075203;28;20055;-73
2021/07/29 10:56:17;;;;;;;24.40;15.52;;;28.70;99.90;;;;;;5094042;28;20474;-74
2021/07/29 10:58:45;;;;;;;19.30;13.30;;;28.70;99.90;;;;;;5075411;28;20047;-73
2021/07/29 11:01:12;;;;;;;17.17;15.10;;;28.90;99.90;;;;;;5075551;28;20539;-74
2021/07/29 11:03:45;;;;;;;22.77;14.00;;;28.90;99.90;;;;;;5094278;28;20031;-74
2021/07/29 11:06:13;;;;;;;22.88;14.25;;;28.90;99.90;;;;;;5093944;28;20027;-75
2021/07/29 11:08:41;;;;;;;22.60;14.32;;;28.90;99.90;;;;;;5075418;28;20027;-74
2021/07/29 11:11:07;;;;;;;18.45;14.48;;;28.90;99.90;;;;;;5094058;28;20046;-73
2021/07/29 11:13:36;;;;;;;22.77;12.88;;;29.00;99.90;;;;;;5075569;28;20498;-73
2021/07/29 11:16:10;;;;;;;19.45;13.30;;;28.90;99.90;;;;;;5093554;28;20028;-73
2021/07/29 11:18:36;;;;;;;13.77;10.70;;;28.80;99.90;;;;;;5093635;28;20105;-75
2021/07/29 11:21:15;;;;;;;18.48;12.45;;;28.90;99.90;;;;;;5074851;28;20062;-74
2021/07/29 11:23:41;;;;;;;11.98;10.18;;;28.80;99.90;;;;;;5093413;28;20044;-73
2021/07/29 11:26:07;;;;;;;14.07;11.35;;;28.90;99.90;;;;;;5074484;28;20513;-74
2021/07/29 11:28:34;;;;;;;15.85;10.73;;;29.00;99.90;;;;;;5074631;28;20073;-74
2021/07/29 11:31:01;;;;;;;26.50;11.55;;;29.00;99.90;;;;;;5074889;28;20028;-73
2021/07/29 11:33:29;;;;;;;15.73;9.88;;;29.00;99.90;;;;;;5075084;28;20035;-75
2021/07/29 11:35:56;;;;;;;20.05;10.88;;;29.10;99.90;;;;;;5075352;28;20529;-73
2021/07/29 11:38:23;;;;;;;21.33;10.90;;;29.10;99.90;;;;;;5093173;28;20052;-73
2021/07/29 11:41:09;;;;;;;23.17;11.48;;;29.10;99.90;;;;;;5092873;28;20024;-73
2021/07/29 11:43:35;;;;;;;17.25;9.10;;;29.20;99.90;;;;;;5074497;28;20024;-74
2021/07/29 11:46:09;;;;;;;19.48;10.75;;;29.20;99.90;;;;;;5093002;28;20493;-74
2021/07/29 11:48:35;;;;;;;16.95;9.30;;;29.10;99.90;;;;;;5074385;28;20114;-73
2021/07/29 11:51:01;;;;;;;16.58;10.05;;;29.10;99.90;;;;;;5092858;28;20103;-73
2021/07/29 11:53:41;;;;;;;19.20;10.50;;;29.10;99.90;;;;;;5092732;28;20032;-75
2021/07/29 11:56:08;;;;;;;20.27;10.55;;;29.10;99.90;;;;;;5074542;28;20089;-74
2021/07/29 11:58:36;;;;;;;14.50;12.13;;;29.20;99.90;;;;;;5092428;28;20443;-74
2021/07/29 12:01:12;;;;;;;21.92;12.23;;;29.20;99.90;;;;;;5076697;28;20032;-74
2021/07/29 12:03:44;;;;;;;16.45;11.98;;;29.10;99.90;;;;;;5094690;28;20020;-73
2021/07/29 12:06:12;;;;;;;24.17;11.52;;;29.10;99.90;;;;;;5092903;28;20047;-73
2021/07/29 12:08:42;;;;;;;18.30;11.10;;;29.20;99.90;;;;;;5092207;28;20474;-73
2021/07/29 12:11:10;;;;;;;17.33;10.85;;;29.30;99.90;;;;;;5074310;28;20054;-74
2021/07/29 12:13:43;;;;;;;16.75;11.35;;;29.30;99.90;;;;;;5074463;28;20032;-73
2021/07/29 12:16:09;;;;;;;19.90;11.15;;;29.20;99.90;;;;;;5074214;28;20024;-73
2021/07/29 12:18:35;;;;;;;17.88;10.75;;;29.20;99.90;;;;;;5073887;28;20031;-74
2021/07/29 12:21:01;;;;;;;25.55;11.73;;;29.30;99.90;;;;;;5092158;28;20474;-73
2021/07/29 12:23:27;;;;;;;24.08;12.35;;;29.20;99.90;;;;;;5074050;28;20032;-75
2021/07/29 12:25:56;;;;;;;26.10;13.88;;;29.20;99.90;;;;;;5073831;28;20024;-75
2021/07/29 12:28:39;;;;;;;23.38;12.70;;;29.20;99.90;;;;;;5073829;28;20084;-75
2021/07/29 12:31:18;;;;;;;21.30;11.25;;;29.20;99.90;;;;;;5073825;28;20024;-73
2021/07/29 12:33:53;;;;;;;22.42;10.52;;;29.20;99.90;;;;;;5073982;28;20036;-74